地図

経路データ

SID SEASON NUMBER BASIN SUBBASIN NAME ISO_TIME NATURE LAT LON WMO_WIND WMO_PRES WMO_AGENCY TRACK_TYPE DIST2LAND LANDFALL IFLAG USA_AGENCY USA_ATCF_ID USA_LAT USA_LON USA_RECORD USA_STATUS USA_WIND USA_PRES USA_SSHS USA_R34_NE USA_R34_SE USA_R34_SW USA_R34_NW USA_R50_NE USA_R50_SE USA_R50_SW USA_R50_NW USA_R64_NE USA_R64_SE USA_R64_SW USA_R64_NW USA_POCI USA_ROCI USA_RMW USA_EYE TOKYO_LAT TOKYO_LON TOKYO_GRADE TOKYO_WIND TOKYO_PRES TOKYO_R50_DIR TOKYO_R50_LONG TOKYO_R50_SHORT TOKYO_R30_DIR TOKYO_R30_LONG TOKYO_R30_SHORT TOKYO_LAND CMA_LAT CMA_LON CMA_CAT CMA_WIND CMA_PRES HKO_LAT HKO_LON HKO_CAT HKO_WIND HKO_PRES NEWDELHI_LAT NEWDELHI_LON NEWDELHI_GRADE NEWDELHI_WIND NEWDELHI_PRES NEWDELHI_CI NEWDELHI_DP NEWDELHI_POCI REUNION_LAT REUNION_LON REUNION_TYPE REUNION_WIND REUNION_PRES REUNION_TNUM REUNION_CI REUNION_RMW REUNION_R34_NE REUNION_R34_SE REUNION_R34_SW REUNION_R34_NW REUNION_R50_NE REUNION_R50_SE REUNION_R50_SW REUNION_R50_NW REUNION_R64_NE REUNION_R64_SE REUNION_R64_SW REUNION_R64_NW BOM_LAT BOM_LON BOM_TYPE BOM_WIND BOM_PRES BOM_TNUM BOM_CI BOM_RMW BOM_R34_NE BOM_R34_SE BOM_R34_SW BOM_R34_NW BOM_R50_NE BOM_R50_SE BOM_R50_SW BOM_R50_NW BOM_R64_NE BOM_R64_SE BOM_R64_SW BOM_R64_NW BOM_ROCI BOM_POCI BOM_EYE BOM_POS_METHOD BOM_PRES_METHOD NADI_LAT NADI_LON NADI_CAT NADI_WIND NADI_PRES WELLINGTON_LAT WELLINGTON_LON WELLINGTON_WIND WELLINGTON_PRES DS824_LAT DS824_LON DS824_STAGE DS824_WIND DS824_PRES TD9636_LAT TD9636_LON TD9636_STAGE TD9636_WIND TD9636_PRES TD9635_LAT TD9635_LON TD9635_WIND TD9635_PRES TD9635_ROCI NEUMANN_LAT NEUMANN_LON NEUMANN_CLASS NEUMANN_WIND NEUMANN_PRES MLC_LAT MLC_LON MLC_CLASS MLC_WIND MLC_PRES USA_GUST BOM_GUST BOM_GUST_PER REUNION_GUST REUNION_GUST_PER USA_SEAHGT USA_SEARAD_NE USA_SEARAD_SE USA_SEARAD_SW USA_SEARAD_NW STORM_SPEED STORM_DIR
1852232N21293 1852 4 NA NA NOT_NAMED 1852-08-19 00:00:00 TS 20.6333 -67.3333 60 hurdat_atl main 243 229 O____________O hurdat_atl AL011852 20.5000 -67.1000 TS 60 0 20.9000 -67.8000 TD 30 8 284
1852232N21293 1852 4 NA NA NOT_NAMED 1852-08-19 03:00:00 TS 20.7336 -67.7632 main 221 209 P____________P AL011852 20.6003 -67.5599 TS 60 0 21.0003 -68.1699 TD 30 8 284
1852232N21293 1852 4 NA NA NOT_NAMED 1852-08-19 06:00:00 TS 20.8333 -68.1667 60 hurdat_atl main 203 197 O____________O hurdat_atl AL011852 20.7000 -68.0000 TS 60 0 21.1000 -68.5000 TD 30 7 286
1852232N21293 1852 4 NA NA NOT_NAMED 1852-08-19 09:00:00 TS 20.9331 -68.5309 main 197 193 P____________P AL011852 20.7999 -68.4076 TS 60 0 21.1997 -68.7776 TD 32 7 286
1852232N21293 1852 4 NA NA NOT_NAMED 1852-08-19 12:00:00 TS 21.0333 -68.9000 60 hurdat_atl main 194 182 O____________O hurdat_atl AL011852 20.9000 -68.8000 TS 60 0 21.3000 -69.1000 TS 35 8 286
1852232N21293 1852 4 NA NA NOT_NAMED 1852-08-19 15:00:00 TS 21.1382 -69.3158 main 182 179 P____________P AL011852 21.0073 -69.1850 TS 60 0 21.4001 -69.5775 TS 35 8 284
1852232N21293 1852 4 NA NA NOT_NAMED 1852-08-19 18:00:00 TS 21.2333 -69.7667 60 hurdat_atl main 177 172 O____________O hurdat_atl AL011852 21.1000 -69.6000 TS 60 0 21.5000 -70.1000 TS 35 9 281
1852232N21293 1852 4 NA NA NOT_NAMED 1852-08-19 21:00:00 TS 21.2973 -70.2252 main 172 167 P____________P AL011852 21.1423 -70.0628 TS 65 1 21.6073 -70.5500 TS 37 9 278
1852232N21293 1852 4 NA NA NOT_NAMED 1852-08-20 00:00:00 TS 21.3667 -70.7333 70 hurdat_atl main 178 178 O____________O hurdat_atl AL011852 21.2000 -70.6000 HU 70 1 21.7000 -71.0000 TS 40 10 280
1852232N21293 1852 4 NA NA NOT_NAMED 1852-08-20 03:00:00 TS 21.4784 -71.3257 main 179 122 P____________P AL011852 21.3427 -71.2423 HU 70 1 21.7499 -71.4927 TS 40 11 282
1852232N21293 1852 4 NA NA NOT_NAMED 1852-08-20 06:00:00 TS 21.6000 -71.9333 70 hurdat_atl main 122 76 O____________O hurdat_atl AL011852 21.5000 -71.9000 HU 70 1 21.8000 -72.0000 TS 40 11 282
1852232N21293 1852 4 NA NA NOT_NAMED 1852-08-20 09:00:00 TS 21.7023 -72.4893 main 76 63 P____________P AL011852 21.6072 -72.4727 HU 70 1 21.8925 -72.5224 TS 42 10 281
1852232N21293 1852 4 NA NA NOT_NAMED 1852-08-20 12:00:00 TS 21.8000 -73.0000 70 hurdat_atl main 67 67 O____________O hurdat_atl AL011852 21.7000 -73.0000 HU 70 1 22.0000 -73.0000 TS 45 9 282
1852232N21293 1852 4 NA NA NOT_NAMED 1852-08-20 15:00:00 TS 21.8998 -73.4651 main 84 84 P____________P AL011852 21.7998 -73.5151 HU 70 1 22.0997 -73.3651 TS 47 9 283
1852232N21293 1852 4 NA NA NOT_NAMED 1852-08-20 18:00:00 TS 22.0000 -73.9000 70 hurdat_atl main 102 102 O____________O hurdat_atl AL011852 21.9000 -74.0000 HU 70 1 22.2000 -73.7000 TS 50 8 285
1852232N21293 1852 4 NA NA NOT_NAMED 1852-08-20 21:00:00 TS 22.1046 -74.3109 main 127 127 P____________P AL011852 22.0071 -74.4350 HU 75 1 22.2997 -74.0626 TS 52 8 284
1852232N21293 1852 4 NA NA NOT_NAMED 1852-08-21 00:00:00 TS 22.2000 -74.7667 80 hurdat_atl main 157 140 O____________O hurdat_atl AL011852 22.1000 -74.9000 HU 80 1 22.4000 -74.5000 TS 55 10 279
1852232N21293 1852 4 NA NA NOT_NAMED 1852-08-21 03:00:00 TS 22.2593 -75.3519 main 146 126 P____________P AL011852 22.1352 -75.4928 HU 80 1 22.5076 -75.0699 TS 57 11 277
1852232N21293 1852 4 NA NA NOT_NAMED 1852-08-21 06:00:00 TS 22.3333 -75.9667 80 hurdat_atl main 124 106 O____________O hurdat_atl AL011852 22.2000 -76.1000 HU 80 1 22.6000 -75.7000 TS 60 11 281
1852232N21293 1852 4 NA NA NOT_NAMED 1852-08-21 09:00:00 TS 22.4731 -76.5150 main 108 98 P____________P AL011852 22.3847 -76.6148 HU 80 1 22.6499 -76.3152 TS 60 10 287
1852232N21293 1852 4 NA NA NOT_NAMED 1852-08-21 12:00:00 TS 22.6333 -77.0333 80 hurdat_atl main 101 98 O____________O hurdat_atl AL011852 22.6000 -77.1000 HU 80 1 22.7000 -76.9000 TS 60 10 288
1852232N21293 1852 4 NA NA NOT_NAMED 1852-08-21 15:00:00 TS 22.7689 -77.5310 main 103 78 P____________P AL011852 22.7572 -77.5852 HU 80 1 22.7923 -77.4225 TS 62 10 286
1852232N21293 1852 4 NA NA NOT_NAMED 1852-08-21 18:00:00 TS 22.9000 -78.0333 80 hurdat_atl main 78 70 O____________O hurdat_atl AL011852 22.9000 -78.1000 HU 80 1 22.9000 -77.9000 HU 65 10 285
1852232N21293 1852 4 NA NA NOT_NAMED 1852-08-21 21:00:00 TS 23.0334 -78.5934 main 78 75 P____________P AL011852 23.0502 -78.7150 HU 85 2 22.9997 -78.3501 HU 67 10 285
1852232N21293 1852 4 NA NA NOT_NAMED 1852-08-22 00:00:00 TS 23.1667 -79.1333 90 hurdat_atl main 75 59 O____________O hurdat_atl AL011852 23.2000 -79.3000 HU 90 2 23.1000 -78.8000 HU 70 9 286
1852232N21293 1852 4 NA NA NOT_NAMED 1852-08-22 03:00:00 TS 23.2997 -79.5768 main 60 54 P____________P AL011852 23.3495 -79.7152 HU 90 2 23.2000 -79.3000 HU 72 8 289
1852232N21293 1852 4 NA NA NOT_NAMED 1852-08-22 06:00:00 TS 23.4333 -80.0000 90 hurdat_atl main 55 55 O____________O hurdat_atl AL011852 23.5000 -80.1000 HU 90 2 23.3000 -79.8000 HU 75 9 288
1852232N21293 1852 4 NA NA NOT_NAMED 1852-08-22 09:00:00 TS 23.5641 -80.4809 main 67 67 P____________P AL011852 23.6425 -80.5852 HU 90 2 23.4074 -80.2725 HU 77 9 287
1852232N21293 1852 4 NA NA NOT_NAMED 1852-08-22 12:00:00 TS 23.7000 -80.9667 90 hurdat_atl main 73 70 O____________O hurdat_atl AL011852 23.8000 -81.1000 HU 90 2 23.5000 -80.7000 HU 80 9 288
1852232N21293 1852 4 NA NA NOT_NAMED 1852-08-22 15:00:00 TS 23.8398 -81.4243 main 78 78 P____________P AL011852 23.9848 -81.6002 HU 90 2 23.5499 -81.0727 HU 82 9 290
1852232N21293 1852 4 NA NA NOT_NAMED 1852-08-22 18:00:00 TS 24.0000 -81.8667 90 hurdat_atl main 100 100 O____________O hurdat_atl AL011852 24.2000 -82.1000 HU 90 2 23.6000 -81.4000 HU 85 9 294
1852232N21293 1852 4 NA NA NOT_NAMED 1852-08-22 21:00:00 TS 24.1949 -82.3075 main 122 122 P____________P AL011852 24.4425 -82.6150 HU 90 2 23.6998 -81.6925 HU 87 9 297
1852232N21293 1852 4 NA NA NOT_NAMED 1852-08-23 00:00:00 TS 24.4000 -82.7333 90 hurdat_atl main 146 146 O____________O hurdat_atl AL011852 24.7000 -83.1000 HU 90 2 23.8000 -82.0000 HU 90 9 297
1852232N21293 1852 4 NA GM NOT_NAMED 1852-08-23 03:00:00 TS 24.5832 -83.1435 main 178 178 P____________P AL011852 24.9498 -83.5227 HU 90 2 23.8500 -82.3851 HU 90 8 297
1852232N21293 1852 4 NA GM NOT_NAMED 1852-08-23 06:00:00 TS 24.7667 -83.5333 90 hurdat_atl main 212 212 O____________O hurdat_atl AL011852 25.2000 -83.9000 HU 90 2 23.9000 -82.8000 HU 90 8 298
1852232N21293 1852 4 NA GM NOT_NAMED 1852-08-23 09:00:00 TS 24.9566 -83.9077 main 240 240 P____________P AL011852 25.4499 -84.2577 HU 90 2 23.9700 -83.2077 HU 90 8 301
1852232N21293 1852 4 NA GM NOT_NAMED 1852-08-23 12:00:00 TS 25.1667 -84.2667 90 hurdat_atl main 268 268 O____________O hurdat_atl AL011852 25.7000 -84.6000 HU 90 2 24.1000 -83.6000 HU 90 8 305
1852232N21293 1852 4 NA GM NOT_NAMED 1852-08-23 15:00:00 TS 25.4116 -84.6192 main 277 277 P____________P AL011852 25.9499 -84.9501 HU 90 2 24.3349 -83.9574 HU 90 8 308
1852232N21293 1852 4 NA GM NOT_NAMED 1852-08-23 18:00:00 TS 25.6667 -84.9667 90 hurdat_atl main 295 295 O____________O hurdat_atl AL011852 26.2000 -85.3000 HU 90 2 24.6000 -84.3000 HU 90 8 308
1852232N21293 1852 4 NA GM NOT_NAMED 1852-08-23 21:00:00 TS 25.8998 -85.3094 main 310 310 P____________P AL011852 26.4500 -85.6576 HU 95 2 24.7996 -84.6130 HU 92 8 307
1852232N21293 1852 4 NA GM NOT_NAMED 1852-08-24 00:00:00 TS 26.1333 -85.6667 100 hurdat_atl main 335 331 O____________O hurdat_atl AL011852 26.7000 -86.0000 HU 100 3 25.0000 -85.0000 HU 95 8 305
1852232N21293 1852 4 NA GM NOT_NAMED 1852-08-24 03:00:00 TS 26.3834 -86.0667 main 357 357 P____________P AL011852 26.9499 -86.3151 HU 100 3 25.2502 -85.5698 HU 95 9 305
1852232N21293 1852 4 NA GM NOT_NAMED 1852-08-24 06:00:00 TS 26.6333 -86.4667 100 hurdat_atl main 362 325 O____________O hurdat_atl AL011852 27.2000 -86.6000 HU 100 3 25.5000 -86.2000 HU 95 8 305
1852232N21293 1852 4 NA GM NOT_NAMED 1852-08-24 09:00:00 TS 26.8642 -86.8468 main 325 282 P____________P AL011852 27.4499 -86.8651 HU 100 3 25.6927 -86.8102 HU 95 8 307
1852232N21293 1852 4 NA GM NOT_NAMED 1852-08-24 12:00:00 TS 27.1000 -87.1667 100 hurdat_atl main 282 244 O____________O hurdat_atl AL011852 27.7000 -87.1000 HU 100 3 25.9000 -87.3000 HU 95 7 316
1852232N21293 1852 4 NA GM NOT_NAMED 1852-08-24 15:00:00 TS 27.3690 -87.3968 main 244 214 P____________P AL011852 27.9575 -87.3151 HU 100 3 26.1921 -87.5602 HU 95 6 326
1852232N21293 1852 4 NA GM NOT_NAMED 1852-08-24 18:00:00 TS 27.6333 -87.5667 100 hurdat_atl main 214 183 O____________O hurdat_atl AL011852 28.2000 -87.5000 HU 100 3 26.5000 -87.7000 HU 95 6 329
1852232N21293 1852 4 NA GM NOT_NAMED 1852-08-24 21:00:00 TS 27.8625 -87.7318 main 183 154 P____________P AL011852 28.4225 -87.6650 HU 100 3 26.7425 -87.8651 HU 97 5 328
1852232N21293 1852 4 NA GM NOT_NAMED 1852-08-25 00:00:00 TS 28.0667 -87.8667 100 hurdat_atl main 154 139 O____________O hurdat_atl AL011852 28.6000 -87.8000 HU 100 3 27.0000 -88.0000 MH 100 4 331
1852232N21293 1852 4 NA GM NOT_NAMED 1852-08-25 03:00:00 TS 28.2525 -87.9743 main 132 117 P____________P AL011852 28.7075 -87.9076 HU 100 3 27.3425 -88.1076 MH 100 4 334
1852232N21293 1852 4 NA GM NOT_NAMED 1852-08-25 06:00:00 TS 28.4333 -88.0667 100 hurdat_atl main 117 95 O____________O hurdat_atl AL011852 28.8000 -88.0000 HU 100 3 27.7000 -88.2000 MH 100 4 335
1852232N21293 1852 4 NA GM NOT_NAMED 1852-08-25 09:00:00 TS 28.6283 -88.1692 main 95 75 P____________P AL011852 28.9425 -88.1000 HU 100 3 28.0000 -88.3075 MH 100 4 336
1852232N21293 1852 4 NA GM NOT_NAMED 1852-08-25 12:00:00 TS 28.8333 -88.2667 100 hurdat_atl main 75 68 O____________O hurdat_atl AL011852 29.1000 -88.2000 HU 100 3 28.3000 -88.4000 MH 100 4 339
1852232N21293 1852 4 NA GM NOT_NAMED 1852-08-25 15:00:00 TS 29.0450 -88.3526 main 59 58 P____________P AL011852 29.2425 -88.3000 HU 100 3 28.6500 -88.4576 MH 100 5 341
1852232N21293 1852 4 NA GM NOT_NAMED 1852-08-25 18:00:00 TS 29.2667 -88.4333 100 hurdat_atl main 62 53 O____________O hurdat_atl AL011852 29.4000 -88.4000 HU 100 3 29.0000 -88.5000 MH 100 5 342
1852232N21293 1852 4 NA GM NOT_NAMED 1852-08-25 21:00:00 TS 29.5050 -88.5291 main 65 65 P____________P AL011852 29.5925 -88.5149 HU 100 3 29.3300 -88.5575 MH 100 5 343
1852232N21293 1852 4 NA GM NOT_NAMED 1852-08-26 00:00:00 TS 29.7333 -88.6000 100 hurdat_atl main 67 45 O____________O hurdat_atl AL011852 29.8000 -88.6000 HU 100 3 29.6000 -88.6000 MH 100 4 350
1852232N21293 1852 4 NA GM NOT_NAMED 1852-08-26 03:00:00 TS 29.9242 -88.6175 main 45 24 P____________P AL011852 30.0000 -88.6225 HU 100 3 29.7725 -88.6076 MH 100 4 2
1852232N21293 1852 4 NA GM NOT_NAMED 1852-08-26 06:00:00 TS 30.1000 -88.6000 100 961 hurdat_atl main 24 9 O____________O hurdat_atl AL011852 30.2000 -88.6000 L HU 100 961 3 29.9000 -88.6000 MH 100 4 2
1852232N21293 1852 4 NA GM NOT_NAMED 1852-08-26 09:00:00 TS 30.2733 -88.5915 main 9 0 P____________P AL011852 30.3850 -88.5798 HU 95 2 30.0500 -88.6149 MH 100 4 9
1852232N21293 1852 4 NA NA NOT_NAMED 1852-08-26 12:00:00 TS 30.4667 -88.5333 90 hurdat_atl main 0 0 O____________O hurdat_atl AL011852 30.6000 -88.5000 HU 90 2 30.2000 -88.6000 MH 100 961 5 20
1852232N21293 1852 4 NA NA NOT_NAMED 1852-08-26 15:00:00 TS 30.7041 -88.4116 main 0 0 P____________P AL011852 30.8849 -88.3449 HU 80 1 30.3424 -88.5448 MH 87 6 30
1852232N21293 1852 4 NA NA NOT_NAMED 1852-08-26 18:00:00 TS 30.9667 -88.2000 70 hurdat_atl main 0 0 O____________O hurdat_atl AL011852 31.2000 -88.1000 HU 70 1 30.5000 -88.4000 HU 75 7 39
1852232N21293 1852 4 NA NA NOT_NAMED 1852-08-26 21:00:00 TS 31.2307 -87.9115 main 0 0 P____________P AL011852 31.5073 -87.8023 HU 60 0 30.6776 -88.1300 HU 62 8 47
1852232N21293 1852 4 NA NA NOT_NAMED 1852-08-27 00:00:00 TS 31.5000 -87.5333 50 hurdat_atl main 0 0 O____________O hurdat_atl AL011852 31.8000 -87.4000 TS 50 0 30.9000 -87.8000 TS 50 9 52
1852232N21293 1852 4 NA NA NOT_NAMED 1852-08-27 03:00:00 TS 31.7689 -87.1138 main 0 0 P____________P AL011852 32.0572 -86.9096 TS 45 0 31.1922 -87.5223 TS 45 10 56
1852232N21293 1852 4 NA NA NOT_NAMED 1852-08-27 06:00:00 TS 32.0333 -86.6000 40 hurdat_atl main 0 0 O____________O hurdat_atl AL011852 32.3000 -86.3000 TS 40 0 31.5000 -87.2000 TS 40 11 61
1852232N21293 1852 4 NA NA NOT_NAMED 1852-08-27 09:00:00 TS 32.2878 -86.0096 main 0 0 P____________P AL011852 32.5568 -85.6172 TS 40 0 31.7498 -86.7945 TS 40 12 66
1852232N21293 1852 4 NA NA NOT_NAMED 1852-08-27 12:00:00 TS 32.5333 -85.3000 40 hurdat_atl main 0 0 O____________O hurdat_atl AL011852 32.8000 -84.8000 TS 40 0 32.0000 -86.3000 TS 40 14 69
1852232N21293 1852 4 NA NA NOT_NAMED 1852-08-27 15:00:00 TS 32.7738 -84.4781 main 0 0 P____________P AL011852 33.0145 -83.8597 TS 40 0 32.2926 -85.7150 TS 40 15 72
1852232N21293 1852 4 NA NA NOT_NAMED 1852-08-27 18:00:00 TS 33.0000 -83.5667 40 hurdat_atl main 0 0 O____________O hurdat_atl AL011852 33.2000 -82.8000 TS 40 0 32.6000 -85.1000 TS 40 18 75
1852232N21293 1852 4 NA NA NOT_NAMED 1852-08-27 21:00:00 TS 33.2363 -82.4629 main 0 0 P____________P AL011852 33.3570 -81.6719 TS 40 0 32.9027 -84.5330 TS 40 20 77
1852232N21293 1852 4 NA NA NOT_NAMED 1852-08-28 00:00:00 TS 33.4400 -81.2000 40 hurdat_atl main 0 0 O____________O hurdat_atl AL011852 33.5000 -80.5000 TS 40 0 33.2000 -84.0000 TS 40 23 80
1852232N21293 1852 4 NA NA NOT_NAMED 1852-08-28 03:00:00 TS 33.6298 -79.7799 main 0 0 P_____________ AL011852 33.6566 -79.3424 TS 40 0 TS 25 82
1852232N21293 1852 4 NA NA NOT_NAMED 1852-08-28 06:00:00 TS 33.8000 -78.2000 40 hurdat_atl main 11 11 O_____________ hurdat_atl AL011852 33.8000 -78.2000 TS 40 0 23 83
1852232N21293 1852 4 NA NA NOT_NAMED 1852-08-28 09:00:00 TS 33.8921 -77.0616 main 70 70 P_____________ AL011852 33.8921 -77.0616 TS 40 0 18 84
1852232N21293 1852 4 NA NA NOT_NAMED 1852-08-28 12:00:00 TS 34.0000 -76.0000 40 hurdat_atl main 90 90 O_____________ hurdat_atl AL011852 34.0000 -76.0000 TS 40 0 17 81
1852232N21293 1852 4 NA NA NOT_NAMED 1852-08-28 15:00:00 TS 34.1542 -75.0394 main 142 142 P_____________ AL011852 34.1542 -75.0394 TS 40 0 15 75
1852232N21293 1852 4 NA NA NOT_NAMED 1852-08-28 18:00:00 TS 34.4000 -74.2000 40 hurdat_atl main 190 190 O_____________ hurdat_atl AL011852 34.4000 -74.2000 TS 40 0 14 66
1852232N21293 1852 4 NA NA NOT_NAMED 1852-08-28 21:00:00 TS 34.7395 -73.4397 main 226 220 P_____________ AL011852 34.7395 -73.4397 TS 45 0 14 55
1852232N21293 1852 4 NA NA NOT_NAMED 1852-08-29 00:00:00 TS 35.2000 -72.8000 50 hurdat_atl main 252 252 O_____________ hurdat_atl AL011852 35.2000 -72.8000 TS 50 0 14 44
1852232N21293 1852 4 NA NA NOT_NAMED 1852-08-29 03:00:00 TS 35.7394 -72.2687 main 288 288 P_____________ AL011852 35.7394 -72.2687 TS 50 0 15 34
1852232N21293 1852 4 NA NA NOT_NAMED 1852-08-29 06:00:00 TS 36.4000 -71.8000 50 hurdat_atl main 338 338 O_____________ hurdat_atl AL011852 36.4000 -71.8000 TS 50 0 16 28
1852232N21293 1852 4 NA NA NOT_NAMED 1852-08-29 09:00:00 TS 37.1696 -71.3140 main 354 343 P_____________ AL011852 37.1696 -71.3140 TS 50 0 18 26
1852232N21293 1852 4 NA NA NOT_NAMED 1852-08-29 12:00:00 TS 38.0000 -70.8000 50 hurdat_atl main 345 296 O_____________ hurdat_atl AL011852 38.0000 -70.8000 TS 50 0 19 27
1852232N21293 1852 4 NA NA NOT_NAMED 1852-08-29 15:00:00 TS 38.8144 -70.2436 main 302 230 P_____________ AL011852 38.8144 -70.2436 TS 50 0 19 30
1852232N21293 1852 4 NA NA NOT_NAMED 1852-08-29 18:00:00 TS 39.6000 -69.6000 50 hurdat_atl main 230 180 O_____________ hurdat_atl AL011852 39.6000 -69.6000 TS 50 0 19 36
1852232N21293 1852 4 NA NA NOT_NAMED 1852-08-29 21:00:00 TS 40.3214 -68.8385 main 185 169 P_____________ AL011852 40.3214 -68.8385 TS 50 0 19 41
1852232N21293 1852 4 NA NA NOT_NAMED 1852-08-30 00:00:00 TS 41.0000 -68.0000 50 hurdat_atl main 183 O_____________ hurdat_atl AL011852 41.0000 -68.0000 TS 50 0 19 43

IBTrACS Databaseについて

本データベースは、米国NOAAが公開する1842年以降の世界の熱帯低気圧のベストトラックデータアーカイブInternational Best Track Archive for Climate Stewardship (IBTrACS)を、ウェブで閲覧しやすい形式に変換したものです。

最終更新日:2021-10-21